Time;durP1;ratioP1;P1;durP2;ratioP2;P2;SDS_P1;SDS_P2;PMS_P1;PMS_P2;Temp;Humidity;BMP_temperature;BMP_pressure;BME280_temperature;BME280_humidity;BME280_pressure;Samples;Min_cycle;Max_cycle;Signal;HPM_P1;HPM_P2
2022/07/16 00:03:01;;;;;;;2.33;1.58;;;18.80;53.60;;;;;;4979724;28;20203;-91
2022/07/16 00:05:27;;;;;;;2.13;1.60;;;18.80;53.80;;;;;;4989446;28;20192;-91
2022/07/16 00:07:54;;;;;;;2.35;2.15;;;18.90;53.80;;;;;;4981364;28;20187;-91
2022/07/16 00:10:20;;;;;;;1.98;1.88;;;18.90;53.80;;;;;;4982471;28;20176;-90
2022/07/16 00:12:50;;;;;;;2.40;1.73;;;18.90;53.70;;;;;;4977772;28;20199;-90
2022/07/16 00:15:16;;;;;;;3.95;2.15;;;18.90;53.60;;;;;;4986988;28;20478;-91
2022/07/16 00:17:41;;;;;;;2.27;1.60;;;18.90;53.40;;;;;;4987203;28;20204;-91
2022/07/16 00:20:09;;;;;;;4.13;1.80;;;19.00;53.20;;;;;;4977239;28;20473;-90
2022/07/16 00:22:34;;;;;;;2.40;2.00;;;19.00;53.10;;;;;;4976619;28;20180;-91
2022/07/16 00:25:00;;;;;;;6.57;2.30;;;19.00;53.10;;;;;;4977177;28;20194;-91
2022/07/16 00:27:26;;;;;;;1.93;1.60;;;19.10;52.90;;;;;;4976066;28;20215;-90
2022/07/16 00:29:51;;;;;;;3.27;1.80;;;19.10;52.80;;;;;;4977524;28;20199;-91
2022/07/16 00:32:17;;;;;;;3.03;2.10;;;19.10;52.80;;;;;;4994479;28;20251;-90
2022/07/16 00:34:43;;;;;;;3.73;1.90;;;19.00;53.00;;;;;;4977694;28;20215;-91
2022/07/16 00:37:09;;;;;;;2.53;1.90;;;19.00;53.30;;;;;;4977212;28;20227;-91
2022/07/16 00:39:34;;;;;;;2.20;1.67;;;19.00;53.60;;;;;;4980641;28;20191;-91
2022/07/16 00:42:00;;;;;;;2.67;1.83;;;19.00;53.60;;;;;;4983439;28;20448;-92
2022/07/16 00:44:26;;;;;;;4.50;1.77;;;19.00;53.70;;;;;;4991604;28;20218;-91
2022/07/16 00:46:51;;;;;;;2.33;1.93;;;19.00;53.80;;;;;;4984435;28;20200;-91
2022/07/16 00:49:19;;;;;;;2.70;1.93;;;19.10;54.00;;;;;;4977551;28;20515;-91
2022/07/16 00:51:48;;;;;;;5.13;2.00;;;19.10;54.10;;;;;;4976949;28;20184;-91
2022/07/16 00:54:15;;;;;;;3.15;1.70;;;19.10;54.10;;;;;;4976316;28;20219;-91
2022/07/16 00:56:41;;;;;;;1.80;1.60;;;19.10;54.30;;;;;;4976239;28;20203;-92
2022/07/16 00:59:07;;;;;;;4.28;2.53;;;19.10;54.40;;;;;;4960977;28;20191;-90
2022/07/16 01:01:33;;;;;;;3.40;2.10;;;19.10;54.30;;;;;;4978531;28;20211;-91
2022/07/16 01:04:01;;;;;;;2.90;2.17;;;19.10;54.50;;;;;;4991537;28;20220;-91
2022/07/16 01:06:28;;;;;;;4.53;2.20;;;19.00;54.30;;;;;;4997217;28;20198;-90
2022/07/16 01:08:54;;;;;;;4.00;2.00;;;19.10;54.30;;;;;;4997117;28;20180;-91
2022/07/16 01:11:21;;;;;;;3.78;2.10;;;19.20;54.60;;;;;;4997496;28;20275;-91
2022/07/16 01:13:49;;;;;;;3.97;2.30;;;19.10;54.70;;;;;;4997594;28;20254;-91
2022/07/16 01:16:16;;;;;;;3.00;2.53;;;19.20;54.80;;;;;;4990423;28;20363;-90
2022/07/16 01:18:43;;;;;;;4.35;2.60;;;19.20;54.90;;;;;;4976870;28;20188;-91
2022/07/16 01:21:09;;;;;;;5.15;2.70;;;19.20;54.90;;;;;;4962822;28;20656;-91
2022/07/16 01:23:42;;;;;;;4.25;3.38;;;19.20;54.80;;;;;;4981114;28;20243;-91
2022/07/16 01:26:08;;;;;;;3.55;2.85;;;19.20;54.80;;;;;;4981873;28;20210;-91
2022/07/16 01:28:34;;;;;;;5.00;2.77;;;19.30;54.90;;;;;;4979406;28;20247;-90
2022/07/16 01:31:00;;;;;;;3.00;2.60;;;19.20;54.70;;;;;;4980139;28;20422;-90
2022/07/16 01:33:29;;;;;;;2.83;2.33;;;19.20;54.90;;;;;;4982668;28;20186;-90
2022/07/16 01:35:58;;;;;;;2.22;1.77;;;19.20;54.70;;;;;;4992288;28;20196;-90
2022/07/16 01:38:24;;;;;;;4.38;2.25;;;19.20;54.50;;;;;;4983040;28;20637;-90
2022/07/16 01:40:51;;;;;;;4.30;2.50;;;19.20;54.40;;;;;;4980101;28;20215;-91
2022/07/16 01:43:23;;;;;;;3.05;2.35;;;19.10;54.50;;;;;;4980153;28;20352;-90
2022/07/16 01:45:50;;;;;;;5.70;2.53;;;19.10;54.40;;;;;;4989639;28;20206;-92
2022/07/16 01:48:16;;;;;;;2.90;2.13;;;19.10;54.40;;;;;;4983224;28;20675;-90
2022/07/16 01:50:43;;;;;;;2.13;1.80;;;19.00;53.70;;;;;;4979590;28;20200;-89
2022/07/16 01:53:09;;;;;;;5.85;2.35;;;19.00;53.60;;;;;;4979195;28;20207;-91
2022/07/16 01:55:36;;;;;;;6.25;2.72;;;19.00;53.50;;;;;;4978934;28;20191;-90
2022/07/16 01:58:03;;;;;;;6.38;2.75;;;19.00;53.10;;;;;;4979146;28;20246;-90
2022/07/16 02:00:30;;;;;;;8.70;2.35;;;19.00;53.10;;;;;;4979495;28;20283;-90
2022/07/16 02:02:56;;;;;;;3.75;2.33;;;19.00;53.20;;;;;;4979002;28;20203;-91
2022/07/16 02:05:22;;;;;;;2.40;2.20;;;18.90;53.30;;;;;;4979913;28;20260;-91
2022/07/16 02:07:47;;;;;;;3.33;2.38;;;18.90;53.30;;;;;;4980910;28;20246;-91
2022/07/16 02:10:14;;;;;;;2.77;2.10;;;18.80;53.70;;;;;;4980538;28;20183;-91
2022/07/16 02:12:42;;;;;;;5.38;2.53;;;18.80;53.70;;;;;;4981106;28;20212;-91
2022/07/16 02:15:09;;;;;;;3.58;2.20;;;18.80;53.70;;;;;;4987453;28;20205;-91
2022/07/16 02:17:36;;;;;;;2.53;2.30;;;18.80;53.80;;;;;;4984602;28;20691;-90
2022/07/16 02:20:03;;;;;;;4.05;2.85;;;18.70;53.80;;;;;;4994027;28;20180;-91
2022/07/16 02:22:29;;;;;;;3.72;2.33;;;18.70;54.30;;;;;;4984606;28;20616;-90
2022/07/16 02:24:54;;;;;;;4.60;3.10;;;18.70;54.90;;;;;;4988468;28;20218;-90
2022/07/16 02:27:20;;;;;;;5.33;3.57;;;18.70;55.00;;;;;;4979551;28;20215;-91
2022/07/16 02:29:46;;;;;;;3.03;2.73;;;18.70;55.40;;;;;;4980847;28;20318;-90
2022/07/16 02:32:14;;;;;;;3.97;3.20;;;18.60;55.80;;;;;;4988903;28;20427;-92
2022/07/16 02:34:40;;;;;;;5.10;2.60;;;18.70;56.10;;;;;;4991770;28;20180;-90
2022/07/16 02:37:05;;;;;;;4.80;3.77;;;18.60;56.40;;;;;;4980028;28;20267;-90
2022/07/16 02:39:32;;;;;;;3.77;3.07;;;18.60;56.60;;;;;;4977888;28;20270;-90
2022/07/16 02:41:58;;;;;;;5.75;3.28;;;18.60;56.90;;;;;;4979552;28;20191;-90
2022/07/16 02:44:24;;;;;;;8.73;3.13;;;18.60;57.10;;;;;;4978655;28;20219;-91
2022/07/16 02:46:49;;;;;;;6.27;3.50;;;18.50;57.50;;;;;;4979779;28;20192;-90
2022/07/16 02:49:15;;;;;;;4.80;3.70;;;18.50;57.60;;;;;;4979006;28;20180;-90
2022/07/16 02:51:41;;;;;;;3.43;3.13;;;18.50;57.70;;;;;;4979983;28;20211;-91
2022/07/16 02:54:07;;;;;;;6.03;3.43;;;18.50;57.90;;;;;;4963115;28;20235;-90
2022/07/16 02:56:32;;;;;;;7.20;3.90;;;18.50;57.60;;;;;;4978375;28;20235;-90
2022/07/16 02:58:58;;;;;;;6.80;3.63;;;18.50;57.90;;;;;;4978634;28;20180;-90
2022/07/16 03:01:24;;;;;;;4.90;3.80;;;18.40;57.90;;;;;;4980977;28;20235;-90
2022/07/16 03:03:49;;;;;;;7.43;4.23;;;18.40;58.00;;;;;;4982870;28;20200;-90
2022/07/16 03:06:15;;;;;;;6.53;4.23;;;18.40;58.20;;;;;;4987240;28;20291;-91
2022/07/16 03:08:54;;;;;;;10.68;4.93;;;18.40;58.40;;;;;;4964708;28;20423;-90
2022/07/16 03:11:20;;;;;;;5.53;4.38;;;18.40;58.60;;;;;;4984325;28;20190;-90
2022/07/16 03:13:46;;;;;;;7.00;5.67;;;18.40;59.50;;;;;;4989964;28;20192;-91
2022/07/16 03:16:12;;;;;;;7.30;4.30;;;18.40;58.90;;;;;;4994207;28;20207;-91
2022/07/16 03:18:37;;;;;;;7.47;4.70;;;18.40;59.00;;;;;;4982307;28;20184;-91
2022/07/16 03:21:03;;;;;;;8.17;4.93;;;18.40;59.20;;;;;;5017123;23;20232;-86
2022/07/16 03:23:29;;;;;;;6.90;4.73;;;18.30;59.60;;;;;;4994377;28;20215;-87
2022/07/16 03:25:55;;;;;;;6.40;4.43;;;18.30;59.80;;;;;;4986841;28;20481;-86
2022/07/16 03:28:20;;;;;;;5.70;4.37;;;18.30;60.00;;;;;;4976130;28;20183;-85
2022/07/16 03:30:46;;;;;;;7.20;4.60;;;18.30;60.20;;;;;;4975926;28;20196;-86
2022/07/16 03:33:12;;;;;;;6.90;5.20;;;18.30;60.30;;;;;;4975613;28;20686;-86
2022/07/16 03:35:37;;;;;;;5.33;4.47;;;18.30;60.80;;;;;;4978918;28;20567;-86
2022/07/16 03:40:47;;;;;;;10.57;5.75;;;18.30;61.60;;;;;;4981967;28;20214;-86
2022/07/16 03:43:13;;;;;;;6.50;4.60;;;18.20;62.00;;;;;;4974273;28;20298;-86
2022/07/16 03:45:39;;;;;;;8.70;5.37;;;18.30;62.40;;;;;;4974114;28;20183;-86
2022/07/16 03:48:04;;;;;;;5.73;5.03;;;18.20;62.50;;;;;;4974552;28;20704;-86
2022/07/16 03:50:30;;;;;;;11.27;5.87;;;18.30;62.70;;;;;;4973760;28;20272;-86
2022/07/16 03:52:56;;;;;;;10.20;5.20;;;18.30;63.20;;;;;;4973599;28;20442;-85
2022/07/16 03:55:23;;;;;;;7.47;5.40;;;18.30;63.40;;;;;;4974899;28;20176;-86
2022/07/16 03:57:49;;;;;;;6.75;4.85;;;18.30;63.70;;;;;;4973087;28;20176;-86
2022/07/16 04:00:15;;;;;;;7.80;5.40;;;18.30;63.80;;;;;;4973351;28;20302;-86
2022/07/16 04:02:41;;;;;;;8.37;5.63;;;18.30;64.10;;;;;;4973317;28;20188;-86
2022/07/16 04:05:07;;;;;;;10.40;5.03;;;18.20;64.20;;;;;;4973481;28;20604;-86
2022/07/16 04:07:33;;;;;;;11.35;6.18;;;18.30;65.00;;;;;;4973092;28;20183;-86
2022/07/16 04:09:59;;;;;;;6.60;5.20;;;18.30;64.60;;;;;;4974490;28;20200;-86
2022/07/16 04:12:25;;;;;;;7.13;5.67;;;18.40;64.40;;;;;;4975286;28;20427;-87
2022/07/16 04:14:52;;;;;;;6.00;5.40;;;18.30;64.60;;;;;;4977575;28;20235;-87
2022/07/16 04:17:18;;;;;;;6.55;5.60;;;18.30;64.70;;;;;;4976218;28;20180;-87
2022/07/16 04:19:44;;;;;;;6.75;5.07;;;18.30;65.10;;;;;;4976739;28;20188;-87
2022/07/16 04:22:10;;;;;;;8.30;5.50;;;18.30;65.20;;;;;;4984545;28;20191;-87
2022/07/16 04:24:36;;;;;;;9.05;6.15;;;18.30;65.30;;;;;;4994012;28;20995;-86
2022/07/16 04:27:02;;;;;;;7.70;6.07;;;18.30;65.60;;;;;;4973670;28;20235;-86
2022/07/16 04:29:27;;;;;;;6.80;6.10;;;18.30;65.80;;;;;;4973162;28;20234;-86
2022/07/16 04:31:53;;;;;;;7.37;5.43;;;18.30;65.90;;;;;;4974291;28;20442;-87
2022/07/16 04:34:20;;;;;;;9.20;5.43;;;18.30;66.10;;;;;;4972926;28;20175;-86
2022/07/16 04:36:46;;;;;;;7.72;6.10;;;18.40;66.40;;;;;;4972653;28;20570;-87
2022/07/16 04:39:12;;;;;;;9.10;6.20;;;18.30;66.40;;;;;;4973167;28;20227;-86
2022/07/16 04:41:37;;;;;;;9.23;5.73;;;18.40;66.60;;;;;;4974786;28;20232;-86
2022/07/16 04:44:03;;;;;;;8.10;4.70;;;18.40;66.80;;;;;;4974625;28;20207;-87
2022/07/16 04:46:29;;;;;;;7.20;6.00;;;18.40;66.70;;;;;;4973396;28;20694;-86
2022/07/16 04:48:54;;;;;;;5.93;4.43;;;18.50;66.80;;;;;;4974366;28;20422;-87
2022/07/16 04:51:20;;;;;;;10.20;5.87;;;18.60;66.60;;;;;;4974878;28;20295;-88
2022/07/16 04:53:46;;;;;;;8.03;6.40;;;18.60;67.30;;;;;;4974955;28;20188;-87
2022/07/16 04:56:12;;;;;;;7.77;5.57;;;18.70;66.60;;;;;;4974780;28;20187;-87
2022/07/16 04:58:37;;;;;;;8.23;6.30;;;18.70;66.70;;;;;;4967916;28;20191;-86
2022/07/16 05:01:03;;;;;;;8.13;5.80;;;18.70;66.70;;;;;;4953851;28;20204;-86
2022/07/16 05:03:29;;;;;;;7.80;4.50;;;18.80;66.30;;;;;;4954159;28;20264;-86
2022/07/16 05:05:55;;;;;;;4.10;2.97;;;18.80;66.20;;;;;;4954407;28;20188;-86
2022/07/16 05:08:20;;;;;;;3.90;2.87;;;18.90;68.70;;;;;;4960743;28;20219;-85
2022/07/16 05:10:47;;;;;;;4.77;2.33;;;19.00;71.00;;;;;;4973411;28;20191;-87
2022/07/16 05:13:12;;;;;;;4.88;2.70;;;18.90;72.30;;;;;;4973320;28;20176;-85
2022/07/16 05:15:38;;;;;;;3.40;1.97;;;18.90;72.80;;;;;;4973085;28;20670;-87
2022/07/16 05:18:04;;;;;;;11.47;2.60;;;19.10;72.40;;;;;;4954844;28;20274;-86
2022/07/16 05:20:30;;;;;;;4.67;2.33;;;19.00;72.70;;;;;;4956598;28;20474;-87
2022/07/16 05:22:56;;;;;;;4.27;2.60;;;19.10;73.10;;;;;;4957413;28;20503;-87
2022/07/16 05:25:22;;;;;;;4.57;2.23;;;19.30;72.60;;;;;;4955966;28;20223;-87
2022/07/16 05:27:47;;;;;;;3.93;1.90;;;19.60;71.20;;;;;;4956297;28;20251;-87
2022/07/16 05:30:13;;;;;;;4.40;2.03;;;20.20;69.80;;;;;;4955806;28;20523;-87
2022/07/16 05:32:43;;;;;;;1.93;1.70;;;20.90;67.40;;;;;;4956052;28;20908;-87
2022/07/16 05:35:10;;;;;;;3.50;1.73;;;21.70;64.20;;;;;;4954924;28;20424;-87
2022/07/16 05:37:36;;;;;;;5.30;2.23;;;22.30;62.00;;;;;;4954756;28;21143;-87
2022/07/16 05:40:02;;;;;;;6.63;2.33;;;22.90;59.70;;;;;;4955932;28;20443;-86
2022/07/16 05:42:28;;;;;;;2.70;2.33;;;23.50;57.50;;;;;;4938244;29;20429;-87
2022/07/16 05:44:53;;;;;;;6.37;2.07;;;23.40;56.70;;;;;;4954843;28;20463;-87
2022/07/16 05:47:19;;;;;;;5.23;2.30;;;23.70;56.40;;;;;;4953334;28;20426;-86
2022/07/16 05:49:45;;;;;;;3.10;1.90;;;23.90;55.40;;;;;;4954770;28;20188;-86
2022/07/16 05:52:11;;;;;;;5.30;2.30;;;23.60;55.80;;;;;;4954983;28;20658;-87
2022/07/16 05:54:36;;;;;;;3.17;1.90;;;23.30;56.60;;;;;;4955657;28;20425;-87
2022/07/16 05:57:02;;;;;;;2.70;1.90;;;23.50;56.30;;;;;;4954140;29;20206;-87
2022/07/16 05:59:28;;;;;;;4.57;2.03;;;23.70;56.00;;;;;;4968640;28;20214;-87
2022/07/16 06:01:54;;;;;;;4.60;2.10;;;23.50;55.90;;;;;;4979255;28;20204;-87
2022/07/16 06:04:19;;;;;;;2.40;1.80;;;23.80;55.10;;;;;;4987106;28;20205;-88
2022/07/16 06:06:45;;;;;;;3.03;1.93;;;23.80;55.80;;;;;;4987465;28;20268;-87
2022/07/16 06:09:12;;;;;;;4.30;1.57;;;23.80;54.80;;;;;;4967325;28;20184;-87
2022/07/16 06:11:38;;;;;;;3.10;1.93;;;24.10;53.30;;;;;;4960681;28;20200;-88
2022/07/16 06:14:04;;;;;;;3.83;2.03;;;23.60;54.00;;;;;;4961187;28;20448;-87
2022/07/16 06:16:29;;;;;;;3.20;2.40;;;23.10;55.50;;;;;;4975824;28;20416;-87
2022/07/16 06:18:55;;;;;;;2.70;1.70;;;23.10;56.30;;;;;;4964516;28;20197;-87
2022/07/16 06:21:21;;;;;;;1.90;1.80;;;23.60;55.10;;;;;;4956662;28;20252;-88
2022/07/16 06:23:46;;;;;;;2.23;1.70;;;23.90;52.80;;;;;;4956827;28;20582;-88
2022/07/16 06:26:12;;;;;;;2.90;1.70;;;23.80;52.80;;;;;;4956700;28;20176;-87
2022/07/16 06:28:38;;;;;;;3.53;2.13;;;23.70;53.10;;;;;;4956796;28;20181;-87
2022/07/16 06:31:03;;;;;;;1.83;1.63;;;23.60;53.50;;;;;;4958558;28;20211;-86
2022/07/16 06:33:29;;;;;;;3.80;1.90;;;23.60;53.00;;;;;;4957530;28;20200;-87
2022/07/16 06:35:55;;;;;;;2.73;1.80;;;23.50;53.30;;;;;;4957688;28;20741;-88
2022/07/16 06:38:20;;;;;;;4.00;1.70;;;23.20;53.80;;;;;;4957724;28;20545;-87
2022/07/16 06:40:46;;;;;;;4.57;1.80;;;23.20;55.30;;;;;;4956691;28;20204;-87
2022/07/16 06:43:12;;;;;;;1.97;1.70;;;22.90;56.30;;;;;;4957201;28;20244;-87
2022/07/16 06:45:38;;;;;;;3.23;1.67;;;23.10;55.80;;;;;;4957307;28;20920;-87
2022/07/16 06:48:04;;;;;;;3.60;1.57;;;23.10;56.10;;;;;;4957271;28;20432;-86
2022/07/16 06:50:30;;;;;;;6.70;2.27;;;23.00;56.50;;;;;;4958630;28;20280;-86
2022/07/16 06:52:55;;;;;;;3.53;2.53;;;23.10;56.00;;;;;;4958696;28;20224;-88
2022/07/16 06:55:23;;;;;;;6.70;2.33;;;23.00;56.20;;;;;;4958815;28;20566;-86
2022/07/16 06:57:49;;;;;;;4.60;2.17;;;22.90;56.70;;;;;;4956943;28;20184;-86
2022/07/16 07:00:15;;;;;;;2.23;2.00;;;23.10;56.70;;;;;;4957585;28;20838;-88
2022/07/16 07:02:41;;;;;;;2.43;2.07;;;23.80;55.10;;;;;;4958755;28;20544;-86
2022/07/16 07:05:07;;;;;;;3.67;2.30;;;23.50;54.70;;;;;;4962685;28;21032;-86
2022/07/16 07:07:33;;;;;;;2.73;1.90;;;23.90;53.50;;;;;;4957046;29;20376;-88
2022/07/16 07:09:59;;;;;;;3.00;1.70;;;24.00;52.50;;;;;;4958741;28;20893;-86
2022/07/16 07:12:25;;;;;;;1.90;1.80;;;24.00;52.30;;;;;;4971365;28;20238;-88
2022/07/16 07:14:50;;;;;;;2.67;1.80;;;24.20;51.40;;;;;;4977377;28;20864;-88
2022/07/16 07:17:16;;;;;;;4.90;1.80;;;23.70;52.60;;;;;;4978483;28;20176;-88
2022/07/16 07:19:42;;;;;;;4.60;1.80;;;23.90;51.90;;;;;;4976589;28;20187;-87
2022/07/16 07:22:07;;;;;;;2.30;1.67;;;23.60;52.30;;;;;;4962314;28;20218;-87
2022/07/16 07:24:33;;;;;;;2.27;1.50;;;23.30;53.60;;;;;;4985559;28;20223;-88
2022/07/16 07:26:59;;;;;;;5.57;2.10;;;23.00;54.00;;;;;;4988406;28;20436;-87
2022/07/16 07:29:24;;;;;;;2.67;1.80;;;22.70;54.80;;;;;;4976856;28;20301;-88
2022/07/16 07:31:50;;;;;;;2.53;1.50;;;22.80;54.90;;;;;;4977422;28;20203;-87
2022/07/16 07:34:16;;;;;;;3.53;1.50;;;22.90;54.10;;;;;;4976966;28;20327;-88
2022/07/16 07:36:42;;;;;;;3.57;1.80;;;22.30;56.30;;;;;;4976760;28;20186;-88
2022/07/16 07:39:07;;;;;;;2.07;1.80;;;22.10;57.00;;;;;;4977566;28;20724;-87
2022/07/16 07:41:33;;;;;;;1.70;1.50;;;22.10;56.80;;;;;;4978036;28;20609;-87
2022/07/16 07:43:59;;;;;;;2.00;1.67;;;22.10;56.60;;;;;;4978664;28;20196;-87
2022/07/16 07:46:25;;;;;;;2.80;1.70;;;21.80;57.80;;;;;;4976321;28;20198;-87
2022/07/16 07:48:51;;;;;;;4.10;1.70;;;21.80;57.50;;;;;;4980621;28;20191;-90
2022/07/16 07:51:19;;;;;;;2.90;2.17;;;21.70;57.80;;;;;;4980279;28;20532;-90
2022/07/16 07:53:44;;;;;;;4.30;1.40;;;21.70;57.70;;;;;;4983729;28;20168;-90
2022/07/16 07:56:10;;;;;;;2.47;1.57;;;21.70;56.60;;;;;;4981014;28;20491;-89
2022/07/16 07:58:37;;;;;;;3.10;1.73;;;21.60;55.80;;;;;;4997202;28;20188;-89
2022/07/16 08:01:03;;;;;;;2.97;1.50;;;21.60;56.20;;;;;;4988910;28;20467;-89
2022/07/16 08:03:29;;;;;;;1.90;1.30;;;21.40;57.30;;;;;;4988973;28;20478;-90
2022/07/16 08:05:55;;;;;;;2.47;1.40;;;21.30;57.70;;;;;;4991363;28;20188;-89
2022/07/16 08:08:20;;;;;;;3.87;1.57;;;21.20;57.50;;;;;;4969198;28;20192;-89
2022/07/16 08:10:46;;;;;;;3.63;1.93;;;21.20;57.50;;;;;;4957728;28;20576;-89
2022/07/16 08:13:12;;;;;;;1.70;1.47;;;21.20;57.70;;;;;;4957762;28;20227;-89
2022/07/16 08:15:38;;;;;;;1.67;1.57;;;21.30;55.90;;;;;;4958075;28;20421;-89
2022/07/16 08:18:04;;;;;;;3.10;1.63;;;21.30;54.30;;;;;;4956851;28;20425;-89
2022/07/16 08:20:30;;;;;;;1.87;1.40;;;21.30;54.50;;;;;;4958259;28;20279;-89
2022/07/16 08:22:56;;;;;;;2.33;1.60;;;21.20;54.20;;;;;;4959751;28;20739;-89
2022/07/16 08:28:06;;;;;;;2.60;1.70;;;21.30;55.80;;;;;;4962575;29;20463;-90
2022/07/16 08:30:31;;;;;;;2.20;1.80;;;21.20;55.70;;;;;;4964697;28;20436;-90
2022/07/16 08:32:57;;;;;;;2.73;1.70;;;21.20;54.60;;;;;;4969064;28;20827;-89
2022/07/16 08:35:23;;;;;;;2.17;1.30;;;21.30;51.70;;;;;;4957861;28;20271;-89
2022/07/16 08:37:48;;;;;;;2.67;1.50;;;21.50;51.30;;;;;;4956332;28;20523;-90
2022/07/16 08:40:20;;;;;;;2.20;1.50;;;21.60;50.30;;;;;;4956030;28;20208;-90
2022/07/16 08:42:46;;;;;;;2.60;1.43;;;21.60;48.90;;;;;;4957697;28;20180;-90
2022/07/16 08:45:15;;;;;;;1.70;1.13;;;21.70;48.20;;;;;;4957038;28;20456;-89
2022/07/16 08:47:40;;;;;;;3.07;1.40;;;21.70;48.30;;;;;;4955655;29;20428;-89
2022/07/16 08:50:13;;;;;;;2.40;1.30;;;21.80;47.50;;;;;;4956102;28;20454;-89
2022/07/16 08:52:51;;;;;;;2.77;1.63;;;21.90;48.20;;;;;;4957883;28;20161;-89
2022/07/16 08:55:17;;;;;;;2.93;1.67;;;22.00;48.00;;;;;;4976950;28;20489;-89
2022/07/16 08:57:48;;;;;;;1.63;1.23;;;22.10;48.20;;;;;;4960008;28;20419;-90
2022/07/16 09:00:14;;;;;;;1.43;1.30;;;22.00;48.30;;;;;;4957197;28;20440;-90
2022/07/16 09:02:40;;;;;;;1.87;1.40;;;21.90;47.80;;;;;;4957433;28;20416;-90
2022/07/16 09:05:07;;;;;;;2.20;1.20;;;22.10;48.00;;;;;;4958194;28;20428;-90
2022/07/16 09:07:34;;;;;;;4.33;2.00;;;22.10;46.90;;;;;;4955614;28;20429;-90
2022/07/16 09:10:00;;;;;;;1.97;1.37;;;22.10;45.70;;;;;;4955950;28;20531;-90
2022/07/16 09:12:31;;;;;;;2.63;1.30;;;22.20;45.80;;;;;;4957242;28;20490;-89
2022/07/16 09:14:57;;;;;;;1.70;1.20;;;22.10;46.30;;;;;;4956166;28;21018;-90
2022/07/16 09:17:23;;;;;;;2.47;1.43;;;22.20;46.00;;;;;;4954433;28;20427;-89
2022/07/16 09:19:49;;;;;;;2.30;1.60;;;22.20;46.20;;;;;;4954126;28;20404;-90
2022/07/16 09:22:15;;;;;;;2.13;1.30;;;22.30;46.00;;;;;;4954107;28;20180;-89
2022/07/16 09:24:48;;;;;;;4.63;1.50;;;22.00;47.30;;;;;;4954234;28;20204;-90
2022/07/16 09:27:17;;;;;;;2.60;1.63;;;22.00;47.10;;;;;;4954097;28;20416;-90
2022/07/16 09:29:52;;;;;;;3.80;1.43;;;21.80;47.30;;;;;;4955036;28;20416;-90
2022/07/16 09:32:39;;;;;;;4.70;1.43;;;21.90;46.70;;;;;;4954953;28;20415;-90
2022/07/16 09:35:11;;;;;;;2.37;1.40;;;21.80;45.30;;;;;;4955113;28;20475;-89
2022/07/16 09:37:47;;;;;;;1.50;1.30;;;21.80;44.20;;;;;;4955699;29;20808;-90
2022/07/16 09:40:14;;;;;;;5.20;1.10;;;21.80;45.00;;;;;;4956395;28;20435;-89
2022/07/16 09:42:40;;;;;;;1.87;1.40;;;22.00;43.90;;;;;;4958900;28;20443;-88
2022/07/16 09:45:07;;;;;;;2.33;1.40;;;22.10;43.40;;;;;;4959693;28;20991;-90
2022/07/16 09:47:34;;;;;;;2.70;1.50;;;22.30;43.30;;;;;;4959434;28;20424;-90
2022/07/16 09:50:01;;;;;;;3.17;1.30;;;22.30;43.70;;;;;;4969376;28;20557;-90
2022/07/16 09:52:34;;;;;;;2.17;1.37;;;22.40;43.20;;;;;;4967140;28;20415;-90
2022/07/16 09:55:01;;;;;;;2.53;1.70;;;22.50;42.50;;;;;;4958029;28;20416;-90
2022/07/16 09:57:28;;;;;;;1.70;1.50;;;22.60;42.60;;;;;;4962493;28;20908;-90
2022/07/16 09:59:56;;;;;;;3.87;1.70;;;22.70;43.50;;;;;;4960792;28;20463;-90
2022/07/16 10:02:23;;;;;;;3.50;1.47;;;22.60;43.70;;;;;;4957995;28;20416;-90
2022/07/16 10:04:49;;;;;;;1.80;1.53;;;22.70;44.40;;;;;;4960709;28;20508;-90
2022/07/16 10:07:17;;;;;;;2.87;1.50;;;22.80;44.10;;;;;;4957917;28;20443;-90
2022/07/16 10:09:43;;;;;;;3.10;1.40;;;22.50;44.80;;;;;;4958273;28;20451;-90
2022/07/16 10:12:14;;;;;;;2.37;1.40;;;22.30;44.80;;;;;;4969102;28;20419;-90
2022/07/16 10:14:49;;;;;;;2.60;1.67;;;22.50;43.80;;;;;;4976904;28;20415;-90
2022/07/16 10:17:18;;;;;;;2.70;1.70;;;22.60;43.20;;;;;;4977519;28;20435;-90
2022/07/16 10:19:45;;;;;;;2.17;1.20;;;22.40;43.80;;;;;;4978499;28;20795;-90
2022/07/16 10:22:16;;;;;;;1.90;1.47;;;22.40;42.20;;;;;;4993699;28;20415;-89
2022/07/16 10:24:54;;;;;;;2.43;1.50;;;22.60;41.30;;;;;;4984796;28;20463;-90
2022/07/16 10:27:28;;;;;;;4.80;1.40;;;22.90;41.30;;;;;;4963056;28;20416;-90
2022/07/16 10:30:15;;;;;;;3.63;1.50;;;22.90;42.40;;;;;;4982369;28;20445;-90
2022/07/16 10:32:59;;;;;;;2.23;1.43;;;22.70;43.70;;;;;;4977855;28;20414;-89
2022/07/16 10:35:33;;;;;;;3.00;1.47;;;22.80;42.50;;;;;;4979146;28;20411;-92
2022/07/16 10:38:21;;;;;;;4.50;1.97;;;23.10;41.40;;;;;;4983060;28;20416;-91
2022/07/16 10:41:05;;;;;;;2.67;1.50;;;23.20;40.20;;;;;;4981206;28;20447;-92
2022/07/16 10:43:35;;;;;;;2.87;1.50;;;23.30;39.80;;;;;;4981833;28;20453;-93
2022/07/16 10:46:03;;;;;;;3.37;1.60;;;23.40;39.80;;;;;;4980716;28;20427;-89
2022/07/16 10:48:50;;;;;;;5.37;1.40;;;23.50;39.60;;;;;;4977427;28;20470;-91
2022/07/16 10:51:24;;;;;;;4.33;1.63;;;23.50;40.00;;;;;;4979429;28;20443;-89
2022/07/16 10:53:56;;;;;;;1.77;1.17;;;23.30;40.30;;;;;;4982824;28;20423;-89
2022/07/16 10:56:44;;;;;;;3.40;1.50;;;23.40;40.00;;;;;;4988460;28;20423;-90
2022/07/16 10:59:12;;;;;;;5.83;1.70;;;23.30;40.00;;;;;;4992197;28;20408;-90
2022/07/16 11:01:41;;;;;;;3.60;1.80;;;23.30;40.70;;;;;;4975480;28;20440;-89
2022/07/16 11:04:09;;;;;;;2.53;1.40;;;23.30;41.30;;;;;;4974720;28;20478;-89
2022/07/16 11:06:37;;;;;;;2.60;1.37;;;23.20;42.50;;;;;;4974941;28;20457;-90
2022/07/16 11:09:05;;;;;;;2.70;1.50;;;23.20;41.60;;;;;;4966589;28;20808;-91
2022/07/16 11:11:41;;;;;;;2.87;1.60;;;23.30;41.40;;;;;;4968338;28;20443;-90
2022/07/16 11:14:13;;;;;;;1.93;1.33;;;23.20;41.40;;;;;;4955813;28;20428;-91
2022/07/16 11:16:51;;;;;;;2.20;1.50;;;23.40;41.10;;;;;;4961739;28;20427;-90
2022/07/16 11:19:17;;;;;;;2.90;1.93;;;23.60;40.70;;;;;;4974934;28;20430;-88
2022/07/16 11:21:55;;;;;;;1.53;1.30;;;23.50;39.50;;;;;;4975135;28;20975;-90
2022/07/16 11:24:22;;;;;;;10.03;1.53;;;23.00;40.90;;;;;;4975149;28;20473;-91
2022/07/16 11:26:48;;;;;;;2.37;1.60;;;23.10;39.40;;;;;;4975155;28;20508;-90
2022/07/16 11:29:14;;;;;;;3.37;1.53;;;23.00;40.40;;;;;;4977599;28;20918;-91
2022/07/16 11:31:40;;;;;;;1.97;1.40;;;22.80;41.60;;;;;;4981529;28;20573;-90
2022/07/16 11:34:08;;;;;;;4.87;1.67;;;22.90;41.70;;;;;;4979398;28;20424;-90
2022/07/16 11:36:37;;;;;;;4.73;2.17;;;22.90;40.40;;;;;;4991997;28;20411;-90
2022/07/16 11:39:11;;;;;;;2.10;1.40;;;23.20;39.30;;;;;;4961772;28;20522;-90
2022/07/16 11:41:40;;;;;;;11.37;2.97;;;23.30;39.40;;;;;;4975664;28;20915;-91
2022/07/16 11:44:14;;;;;;;3.30;1.70;;;23.50;39.10;;;;;;4976816;28;20466;-90
2022/07/16 11:46:54;;;;;;;1.80;1.50;;;23.50;38.40;;;;;;4977012;28;20415;-89
2022/07/16 11:49:23;;;;;;;3.17;1.30;;;23.40;38.10;;;;;;4981135;28;21031;-90
2022/07/16 11:51:50;;;;;;;3.50;1.57;;;23.30;38.90;;;;;;4975115;28;20501;-90
2022/07/16 11:54:16;;;;;;;2.77;1.70;;;23.40;38.80;;;;;;4975705;28;20434;-90
2022/07/16 11:56:42;;;;;;;4.20;2.47;;;23.50;38.50;;;;;;4974642;28;20423;-90
2022/07/16 11:59:25;;;;;;;1.90;1.23;;;23.60;38.60;;;;;;4966233;28;20549;-90
2022/07/16 12:02:05;;;;;;;4.63;2.23;;;23.70;38.60;;;;;;4939026;29;20500;-90
2022/07/16 12:04:42;;;;;;;2.43;1.53;;;23.60;38.30;;;;;;4955269;28;20881;-90
2022/07/16 12:07:10;;;;;;;2.27;1.90;;;23.60;37.70;;;;;;4954255;28;20424;-89
2022/07/16 12:09:56;;;;;;;2.90;2.10;;;23.50;38.10;;;;;;4956496;28;20461;-91
2022/07/16 12:12:36;;;;;;;2.87;1.73;;;23.80;37.70;;;;;;4974424;28;20423;-90
2022/07/16 12:15:12;;;;;;;5.40;3.80;;;23.90;37.00;;;;;;4974736;28;20428;-90
2022/07/16 12:17:41;;;;;;;4.57;3.17;;;23.90;36.90;;;;;;4974513;28;20510;-90
2022/07/16 12:20:09;;;;;;;2.07;1.60;;;24.00;36.20;;;;;;4974033;28;20462;-90
2022/07/16 12:23:04;;;;;;;3.47;1.60;;;24.10;35.90;;;;;;4974553;28;20475;-90
2022/07/16 12:25:35;;;;;;;1.60;1.40;;;24.10;36.00;;;;;;4975476;28;20935;-90
2022/07/16 12:28:05;;;;;;;2.13;1.50;;;23.90;36.60;;;;;;4976452;28;20469;-90
2022/07/16 12:30:43;;;;;;;4.33;1.70;;;23.80;36.70;;;;;;4978587;28;20817;-91
2022/07/16 12:33:30;;;;;;;5.13;1.80;;;23.70;37.50;;;;;;4979302;28;20435;-90
2022/07/16 12:36:03;;;;;;;1.90;1.70;;;23.80;36.30;;;;;;4993417;28;20455;-90
2022/07/16 12:38:58;;;;;;;1.83;1.73;;;23.90;36.20;;;;;;4997213;28;20430;-90
2022/07/16 12:41:29;;;;;;;2.53;1.50;;;23.80;36.60;;;;;;4997538;28;20442;-89
2022/07/16 12:44:12;;;;;;;2.10;1.60;;;23.40;37.50;;;;;;4975420;28;20469;-90
2022/07/16 12:46:44;;;;;;;3.57;2.40;;;23.40;37.50;;;;;;4975802;28;20458;-90
2022/07/16 12:49:17;;;;;;;2.07;1.80;;;23.60;36.70;;;;;;4974936;28;20511;-88
2022/07/16 12:51:45;;;;;;;3.40;1.60;;;23.80;36.00;;;;;;4974289;28;20440;-89
2022/07/16 12:54:12;;;;;;;3.40;1.70;;;23.70;37.60;;;;;;4975823;28;20428;-89
2022/07/16 12:59:24;;;;;;;2.57;1.90;;;23.90;36.30;;;;;;4968000;28;20491;-89